sensor_id;sensor_type;location;lat;lon;timestamp;P1;durP1;ratioP1;P2;durP2;ratioP2
16472;SDS011;8347;52.486;13.432;2022-10-18T03:47:05;14.65;;;11.32;;
16472;SDS011;8347;52.486;13.432;2022-10-18T03:49:51;15.65;;;11.45;;
16472;SDS011;8347;52.486;13.432;2022-10-18T03:52:38;11.68;;;10.23;;
16472;SDS011;8347;52.486;13.432;2022-10-18T03:55:24;12.00;;;10.80;;
16472;SDS011;8347;52.486;13.432;2022-10-18T03:58:11;15.65;;;11.23;;
16472;SDS011;8347;52.486;13.432;2022-10-18T04:00:57;12.13;;;10.25;;
16472;SDS011;8347;52.486;13.432;2022-10-18T04:03:44;15.95;;;11.23;;
16472;SDS011;8347;52.486;13.432;2022-10-18T04:06:30;15.35;;;11.48;;
16472;SDS011;8347;52.486;13.432;2022-10-18T04:09:17;16.48;;;11.95;;
16472;SDS011;8347;52.486;13.432;2022-10-18T04:12:04;15.23;;;10.75;;
16472;SDS011;8347;52.486;13.432;2022-10-18T04:14:50;13.00;;;10.73;;
16472;SDS011;8347;52.486;13.432;2022-10-18T04:17:36;14.32;;;11.25;;
16472;SDS011;8347;52.486;13.432;2022-10-18T04:20:23;15.07;;;11.05;;
16472;SDS011;8347;52.486;13.432;2022-10-18T04:23:10;13.02;;;10.00;;
16472;SDS011;8347;52.486;13.432;2022-10-18T04:25:57;16.38;;;11.30;;
16472;SDS011;8347;52.486;13.432;2022-10-18T04:28:43;11.27;;;10.10;;
16472;SDS011;8347;52.486;13.432;2022-10-18T04:31:30;14.27;;;10.57;;
16472;SDS011;8347;52.486;13.432;2022-10-18T04:34:16;18.77;;;11.55;;
16472;SDS011;8347;52.486;13.432;2022-10-18T04:37:03;17.63;;;11.55;;
16472;SDS011;8347;52.486;13.432;2022-10-18T04:39:49;12.55;;;10.00;;
16472;SDS011;8347;52.486;13.432;2022-10-18T04:42:36;12.75;;;10.38;;
16472;SDS011;8347;52.486;13.432;2022-10-18T10:00:34;18.85;;;12.50;;
16472;SDS011;8347;52.486;13.432;2022-10-18T10:03:24;23.33;;;15.65;;
16472;SDS011;8347;52.486;13.432;2022-10-18T10:08:59;17.42;;;12.10;;
16472;SDS011;8347;52.486;13.432;2022-10-18T10:11:47;15.30;;;11.07;;
16472;SDS011;8347;52.486;13.432;2022-10-18T10:14:41;16.65;;;11.57;;
16472;SDS011;8347;52.486;13.432;2022-10-18T10:17:29;16.73;;;12.50;;
16472;SDS011;8347;52.486;13.432;2022-10-18T10:20:17;17.88;;;11.75;;
16472;SDS011;8347;52.486;13.432;2022-10-18T10:23:05;17.23;;;11.70;;
16472;SDS011;8347;52.486;13.432;2022-10-18T10:25:53;16.92;;;11.13;;
16472;SDS011;8347;52.486;13.432;2022-10-18T10:28:41;24.00;;;11.27;;
16472;SDS011;8347;52.486;13.432;2022-10-18T10:31:33;17.27;;;10.55;;
16472;SDS011;8347;52.486;13.432;2022-10-18T10:34:21;15.25;;;11.00;;
16472;SDS011;8347;52.486;13.432;2022-10-18T10:40:20;16.95;;;10.93;;
16472;SDS011;8347;52.486;13.432;2022-10-18T10:43:14;19.10;;;10.43;;
16472;SDS011;8347;52.486;13.432;2022-10-18T10:46:02;15.57;;;11.10;;
16472;SDS011;8347;52.486;13.432;2022-10-18T10:48:53;16.60;;;11.50;;
16472;SDS011;8347;52.486;13.432;2022-10-18T10:51:41;15.18;;;11.20;;
16472;SDS011;8347;52.486;13.432;2022-10-18T10:54:29;14.02;;;11.02;;
16472;SDS011;8347;52.486;13.432;2022-10-18T10:57:22;15.95;;;11.90;;
16472;SDS011;8347;52.486;13.432;2022-10-18T11:00:31;15.75;;;11.50;;
16472;SDS011;8347;52.486;13.432;2022-10-18T11:03:17;14.38;;;10.85;;
16472;SDS011;8347;52.486;13.432;2022-10-18T11:06:08;17.63;;;11.32;;
16472;SDS011;8347;52.486;13.432;2022-10-18T11:09:44;14.32;;;10.93;;
16472;SDS011;8347;52.486;13.432;2022-10-18T11:12:38;17.30;;;13.30;;
16472;SDS011;8347;52.486;13.432;2022-10-18T14:30:53;19.65;;;14.13;;
16472;SDS011;8347;52.486;13.432;2022-10-18T14:33:54;20.23;;;14.90;;
16472;SDS011;8347;52.486;13.432;2022-10-18T14:36:41;20.67;;;14.98;;
16472;SDS011;8347;52.486;13.432;2022-10-18T14:39:31;20.35;;;16.05;;
16472;SDS011;8347;52.486;13.432;2022-10-18T14:42:19;24.90;;;17.50;;
16472;SDS011;8347;52.486;13.432;2022-10-18T14:45:16;26.52;;;17.10;;
16472;SDS011;8347;52.486;13.432;2022-10-18T14:48:20;27.05;;;18.65;;
16472;SDS011;8347;52.486;13.432;2022-10-18T14:51:08;29.08;;;19.33;;
16472;SDS011;8347;52.486;13.432;2022-10-18T14:53:57;31.83;;;19.48;;
16472;SDS011;8347;52.486;13.432;2022-10-18T14:56:44;28.50;;;18.30;;
16472;SDS011;8347;52.486;13.432;2022-10-18T14:59:32;27.10;;;16.92;;
16472;SDS011;8347;52.486;13.432;2022-10-18T15:02:48;23.20;;;15.32;;
16472;SDS011;8347;52.486;13.432;2022-10-18T15:05:35;23.58;;;15.57;;
16472;SDS011;8347;52.486;13.432;2022-10-18T15:08:22;21.85;;;15.73;;
16472;SDS011;8347;52.486;13.432;2022-10-18T15:11:10;23.67;;;15.90;;
16472;SDS011;8347;52.486;13.432;2022-10-18T15:13:59;23.30;;;16.13;;
16472;SDS011;8347;52.486;13.432;2022-10-18T15:16:51;25.70;;;16.00;;
16472;SDS011;8347;52.486;13.432;2022-10-18T15:19:58;23.10;;;15.98;;
16472;SDS011;8347;52.486;13.432;2022-10-18T15:22:45;25.88;;;15.00;;
16472;SDS011;8347;52.486;13.432;2022-10-18T15:25:31;23.35;;;14.48;;
16472;SDS011;8347;52.486;13.432;2022-10-18T15:28:26;18.67;;;13.32;;
16472;SDS011;8347;52.486;13.432;2022-10-18T15:31:24;20.15;;;13.10;;
16472;SDS011;8347;52.486;13.432;2022-10-18T15:34:26;17.58;;;13.63;;
16472;SDS011;8347;52.486;13.432;2022-10-18T15:37:29;18.73;;;14.43;;
16472;SDS011;8347;52.486;13.432;2022-10-18T15:40:18;22.63;;;13.80;;
16472;SDS011;8347;52.486;13.432;2022-10-18T15:46:25;23.52;;;14.07;;
16472;SDS011;8347;52.486;13.432;2022-10-18T15:49:33;20.55;;;14.93;;
16472;SDS011;8347;52.486;13.432;2022-10-18T15:52:27;21.88;;;15.38;;
16472;SDS011;8347;52.486;13.432;2022-10-18T15:58:12;23.60;;;16.02;;
16472;SDS011;8347;52.486;13.432;2022-10-18T16:01:01;19.52;;;15.55;;
16472;SDS011;8347;52.486;13.432;2022-10-18T16:03:49;23.83;;;14.85;;
16472;SDS011;8347;52.486;13.432;2022-10-18T16:06:36;22.33;;;15.77;;
16472;SDS011;8347;52.486;13.432;2022-10-18T16:09:24;21.42;;;15.57;;
16472;SDS011;8347;52.486;13.432;2022-10-18T16:12:11;24.90;;;17.52;;
16472;SDS011;8347;52.486;13.432;2022-10-18T16:14:58;22.90;;;16.95;;
16472;SDS011;8347;52.486;13.432;2022-10-18T16:17:45;29.05;;;17.50;;
16472;SDS011;8347;52.486;13.432;2022-10-18T16:20:32;26.88;;;18.13;;
16472;SDS011;8347;52.486;13.432;2022-10-18T16:23:19;35.03;;;19.85;;
16472;SDS011;8347;52.486;13.432;2022-10-18T16:26:08;36.72;;;21.33;;
16472;SDS011;8347;52.486;13.432;2022-10-18T16:28:56;35.75;;;22.40;;
16472;SDS011;8347;52.486;13.432;2022-10-18T16:31:42;36.45;;;24.40;;
16472;SDS011;8347;52.486;13.432;2022-10-18T16:34:31;38.72;;;23.63;;
16472;SDS011;8347;52.486;13.432;2022-10-18T16:37:17;39.78;;;22.50;;
16472;SDS011;8347;52.486;13.432;2022-10-18T16:40:23;36.20;;;24.20;;
16472;SDS011;8347;52.486;13.432;2022-10-18T16:43:10;31.20;;;22.20;;
16472;SDS011;8347;52.486;13.432;2022-10-18T16:45:56;33.75;;;22.33;;
16472;SDS011;8347;52.486;13.432;2022-10-18T16:48:43;34.08;;;21.55;;
16472;SDS011;8347;52.486;13.432;2022-10-18T16:51:30;31.63;;;22.02;;
16472;SDS011;8347;52.486;13.432;2022-10-18T16:54:17;27.70;;;19.50;;
16472;SDS011;8347;52.486;13.432;2022-10-18T16:57:03;29.58;;;20.00;;
16472;SDS011;8347;52.486;13.432;2022-10-18T16:59:50;34.25;;;22.55;;
16472;SDS011;8347;52.486;13.432;2022-10-18T17:02:37;41.50;;;25.20;;
16472;SDS011;8347;52.486;13.432;2022-10-18T17:05:23;42.05;;;26.80;;
16472;SDS011;8347;52.486;13.432;2022-10-18T17:08:17;33.60;;;24.35;;
16472;SDS011;8347;52.486;13.432;2022-10-18T17:11:04;31.73;;;22.88;;
16472;SDS011;8347;52.486;13.432;2022-10-18T17:13:51;33.50;;;22.85;;
16472;SDS011;8347;52.486;13.432;2022-10-18T17:16:38;36.47;;;20.85;;
16472;SDS011;8347;52.486;13.432;2022-10-18T17:19:24;31.70;;;22.77;;
16472;SDS011;8347;52.486;13.432;2022-10-18T17:22:11;44.08;;;25.45;;
16472;SDS011;8347;52.486;13.432;2022-10-18T17:24:57;38.40;;;24.63;;
16472;SDS011;8347;52.486;13.432;2022-10-18T17:27:44;44.00;;;27.42;;
16472;SDS011;8347;52.486;13.432;2022-10-18T17:30:31;44.85;;;28.38;;
16472;SDS011;8347;52.486;13.432;2022-10-18T17:33:18;39.05;;;24.42;;
16472;SDS011;8347;52.486;13.432;2022-10-18T17:36:04;33.05;;;22.88;;
16472;SDS011;8347;52.486;13.432;2022-10-18T17:38:51;30.60;;;21.15;;
16472;SDS011;8347;52.486;13.432;2022-10-18T17:41:38;32.05;;;20.10;;
16472;SDS011;8347;52.486;13.432;2022-10-18T17:44:24;37.40;;;23.10;;
16472;SDS011;8347;52.486;13.432;2022-10-18T17:47:11;33.55;;;22.65;;
16472;SDS011;8347;52.486;13.432;2022-10-18T17:49:58;37.30;;;23.38;;
16472;SDS011;8347;52.486;13.432;2022-10-18T17:52:45;36.20;;;22.90;;
16472;SDS011;8347;52.486;13.432;2022-10-18T17:55:32;33.15;;;22.58;;
16472;SDS011;8347;52.486;13.432;2022-10-18T17:58:19;33.25;;;22.45;;
16472;SDS011;8347;52.486;13.432;2022-10-18T18:01:09;31.45;;;21.48;;
16472;SDS011;8347;52.486;13.432;2022-10-18T18:03:57;31.02;;;20.80;;
16472;SDS011;8347;52.486;13.432;2022-10-18T18:06:45;33.78;;;20.33;;
16472;SDS011;8347;52.486;13.432;2022-10-18T18:09:33;33.83;;;21.88;;
16472;SDS011;8347;52.486;13.432;2022-10-18T18:12:20;31.83;;;21.95;;
16472;SDS011;8347;52.486;13.432;2022-10-18T18:15:12;32.72;;;22.02;;
16472;SDS011;8347;52.486;13.432;2022-10-18T18:18:00;36.72;;;21.60;;
16472;SDS011;8347;52.486;13.432;2022-10-18T18:20:50;30.83;;;20.23;;
16472;SDS011;8347;52.486;13.432;2022-10-18T18:23:37;34.08;;;20.92;;
16472;SDS011;8347;52.486;13.432;2022-10-18T18:26:25;32.05;;;20.65;;
16472;SDS011;8347;52.486;13.432;2022-10-18T18:29:12;41.45;;;24.17;;
16472;SDS011;8347;52.486;13.432;2022-10-18T18:32:01;43.72;;;26.45;;
16472;SDS011;8347;52.486;13.432;2022-10-18T18:34:48;56.88;;;32.45;;
16472;SDS011;8347;52.486;13.432;2022-10-18T18:37:34;58.05;;;33.10;;
16472;SDS011;8347;52.486;13.432;2022-10-18T18:40:20;59.15;;;32.60;;
16472;SDS011;8347;52.486;13.432;2022-10-18T18:43:08;62.78;;;34.13;;
16472;SDS011;8347;52.486;13.432;2022-10-18T18:45:55;55.03;;;31.42;;
16472;SDS011;8347;52.486;13.432;2022-10-18T18:48:41;44.97;;;27.55;;
16472;SDS011;8347;52.486;13.432;2022-10-18T18:51:28;45.97;;;27.42;;
16472;SDS011;8347;52.486;13.432;2022-10-18T18:54:14;56.75;;;31.83;;
16472;SDS011;8347;52.486;13.432;2022-10-18T18:57:01;42.38;;;29.10;;
16472;SDS011;8347;52.486;13.432;2022-10-18T18:59:49;41.47;;;24.95;;
16472;SDS011;8347;52.486;13.432;2022-10-18T19:02:36;39.67;;;22.40;;
16472;SDS011;8347;52.486;13.432;2022-10-18T19:05:23;34.83;;;19.85;;
16472;SDS011;8347;52.486;13.432;2022-10-18T19:08:10;31.70;;;19.73;;
16472;SDS011;8347;52.486;13.432;2022-10-18T19:10:56;29.10;;;18.20;;
16472;SDS011;8347;52.486;13.432;2022-10-18T19:13:43;27.60;;;17.95;;
16472;SDS011;8347;52.486;13.432;2022-10-18T19:16:31;28.67;;;16.33;;
16472;SDS011;8347;52.486;13.432;2022-10-18T19:19:20;24.88;;;14.95;;
16472;SDS011;8347;52.486;13.432;2022-10-18T19:22:07;20.50;;;13.15;;
16472;SDS011;8347;52.486;13.432;2022-10-18T19:24:55;22.85;;;11.90;;
16472;SDS011;8347;52.486;13.432;2022-10-18T19:27:42;17.35;;;10.90;;
16472;SDS011;8347;52.486;13.432;2022-10-18T19:30:28;18.23;;;10.80;;
16472;SDS011;8347;52.486;13.432;2022-10-18T19:33:15;16.83;;;10.85;;
16472;SDS011;8347;52.486;13.432;2022-10-18T19:36:06;18.70;;;11.70;;
16472;SDS011;8347;52.486;13.432;2022-10-18T19:38:53;19.10;;;9.68;;
16472;SDS011;8347;52.486;13.432;2022-10-18T19:41:39;20.30;;;10.55;;
16472;SDS011;8347;52.486;13.432;2022-10-18T19:44:27;19.52;;;10.02;;
16472;SDS011;8347;52.486;13.432;2022-10-18T19:47:15;17.25;;;9.48;;
16472;SDS011;8347;52.486;13.432;2022-10-18T19:50:01;22.15;;;11.20;;
16472;SDS011;8347;52.486;13.432;2022-10-18T19:52:48;16.48;;;9.18;;
16472;SDS011;8347;52.486;13.432;2022-10-18T19:55:34;17.48;;;9.13;;
16472;SDS011;8347;52.486;13.432;2022-10-18T19:58:21;14.20;;;7.50;;
16472;SDS011;8347;52.486;13.432;2022-10-18T20:01:07;16.63;;;8.32;;
16472;SDS011;8347;52.486;13.432;2022-10-18T20:03:54;16.45;;;7.78;;
16472;SDS011;8347;52.486;13.432;2022-10-18T20:06:41;13.05;;;7.50;;
16472;SDS011;8347;52.486;13.432;2022-10-18T20:09:28;11.73;;;7.97;;
16472;SDS011;8347;52.486;13.432;2022-10-18T20:12:14;13.68;;;8.88;;
16472;SDS011;8347;52.486;13.432;2022-10-18T20:15:02;14.82;;;7.38;;
16472;SDS011;8347;52.486;13.432;2022-10-18T20:17:48;12.13;;;7.32;;
16472;SDS011;8347;52.486;13.432;2022-10-18T20:20:35;13.13;;;7.57;;
16472;SDS011;8347;52.486;13.432;2022-10-18T20:23:21;17.20;;;6.90;;
16472;SDS011;8347;52.486;13.432;2022-10-18T20:28:59;15.23;;;6.63;;
16472;SDS011;8347;52.486;13.432;2022-10-18T20:31:46;8.15;;;6.20;;
16472;SDS011;8347;52.486;13.432;2022-10-18T20:34:33;17.13;;;7.93;;
16472;SDS011;8347;52.486;13.432;2022-10-18T20:37:19;15.07;;;8.02;;
16472;SDS011;8347;52.486;13.432;2022-10-18T20:40:06;13.65;;;6.53;;
16472;SDS011;8347;52.486;13.432;2022-10-18T20:42:53;12.05;;;6.18;;
16472;SDS011;8347;52.486;13.432;2022-10-18T20:45:40;11.80;;;6.40;;
16472;SDS011;8347;52.486;13.432;2022-10-18T20:48:26;13.80;;;6.22;;
16472;SDS011;8347;52.486;13.432;2022-10-18T20:51:13;14.30;;;6.60;;
16472;SDS011;8347;52.486;13.432;2022-10-18T20:54:01;18.52;;;8.98;;
16472;SDS011;8347;52.486;13.432;2022-10-18T20:56:51;13.25;;;7.05;;
16472;SDS011;8347;52.486;13.432;2022-10-18T20:59:40;22.90;;;7.85;;
16472;SDS011;8347;52.486;13.432;2022-10-18T21:02:26;12.88;;;7.13;;
16472;SDS011;8347;52.486;13.432;2022-10-18T21:05:12;11.82;;;6.82;;
16472;SDS011;8347;52.486;13.432;2022-10-18T21:08:03;14.68;;;6.15;;
16472;SDS011;8347;52.486;13.432;2022-10-18T21:10:49;12.00;;;6.82;;
16472;SDS011;8347;52.486;13.432;2022-10-18T21:13:36;13.13;;;6.93;;
16472;SDS011;8347;52.486;13.432;2022-10-18T21:16:25;15.13;;;6.10;;
16472;SDS011;8347;52.486;13.432;2022-10-18T21:19:13;10.43;;;5.63;;
16472;SDS011;8347;52.486;13.432;2022-10-18T21:21:59;11.30;;;5.18;;
16472;SDS011;8347;52.486;13.432;2022-10-18T21:24:45;10.63;;;4.75;;
16472;SDS011;8347;52.486;13.432;2022-10-18T21:27:32;9.80;;;4.03;;
